Time;durP1;ratioP1;P1;durP2;ratioP2;P2;SDS_P1;SDS_P2;PMS_P1;PMS_P2;Temp;Humidity;BMP_temperature;BMP_pressure;BME280_temperature;BME280_humidity;BME280_pressure;Samples;Min_cycle;Max_cycle;Signal;HPM_P1;HPM_P2
2021/11/16 00:02:05;;;;;;;19.42;14.63;;;18.00;57.10;;;;;;4998636;28;20569;-62
2021/11/16 00:04:30;;;;;;;18.75;13.40;;;18.00;57.10;;;;;;4999951;28;20113;-62
2021/11/16 00:06:56;;;;;;;15.60;12.40;;;18.00;57.10;;;;;;4999050;28;20045;-62
2021/11/16 00:09:21;;;;;;;15.90;12.80;;;18.00;57.00;;;;;;4995260;28;20157;-62
2021/11/16 00:11:47;;;;;;;17.63;13.35;;;17.90;57.00;;;;;;5004110;28;20104;-62
2021/11/16 00:14:13;;;;;;;16.83;13.32;;;17.90;56.90;;;;;;4994173;28;20101;-62
2021/11/16 00:16:40;;;;;;;17.67;13.77;;;17.90;56.90;;;;;;4997016;28;22397;-62
2021/11/16 00:19:09;;;;;;;15.48;12.45;;;17.90;57.00;;;;;;4997849;28;20132;-62
2021/11/16 00:21:34;;;;;;;15.90;12.57;;;18.00;57.50;;;;;;4998124;28;20026;-62
2021/11/16 00:24:07;;;;;;;14.43;12.52;;;18.00;56.80;;;;;;4992080;28;20512;-62
2021/11/16 00:26:33;;;;;;;15.77;12.07;;;18.00;56.90;;;;;;4996767;28;20034;-62
2021/11/16 00:28:58;;;;;;;16.55;12.43;;;18.00;56.80;;;;;;4993266;28;20052;-62
2021/11/16 00:31:24;;;;;;;16.48;12.98;;;17.90;56.90;;;;;;4995317;28;20619;-62
2021/11/16 00:33:49;;;;;;;15.70;12.57;;;17.90;56.80;;;;;;4999802;28;20088;-62
2021/11/16 00:36:15;;;;;;;16.48;11.80;;;18.00;56.90;;;;;;4999611;28;20229;-62
2021/11/16 00:38:41;;;;;;;15.00;11.70;;;18.00;56.80;;;;;;4995371;28;20063;-62
2021/11/16 00:41:07;;;;;;;14.48;11.60;;;17.90;56.80;;;;;;4994248;28;20184;-62
2021/11/16 00:43:33;;;;;;;16.52;11.88;;;17.90;56.70;;;;;;4987648;28;20113;-62
2021/11/16 00:45:59;;;;;;;12.80;11.20;;;17.90;56.80;;;;;;4997540;28;20604;-62
2021/11/16 00:48:25;;;;;;;15.18;11.75;;;17.90;56.80;;;;;;5006215;28;20052;-62
2021/11/16 00:50:53;;;;;;;15.77;12.43;;;17.90;56.80;;;;;;4996297;28;20046;-61
2021/11/16 00:53:19;;;;;;;14.48;11.15;;;17.90;56.80;;;;;;5001691;28;20103;-62
2021/11/16 00:55:45;;;;;;;14.38;11.35;;;18.00;56.80;;;;;;4988194;28;20034;-62
2021/11/16 00:58:10;;;;;;;15.57;11.48;;;17.90;56.70;;;;;;4996617;28;20034;-62
2021/11/16 01:00:36;;;;;;;15.55;12.43;;;17.90;56.70;;;;;;4994590;28;20626;-62
2021/11/16 01:03:01;;;;;;;14.35;11.93;;;17.90;56.70;;;;;;4989081;28;20030;-61
2021/11/16 01:05:27;;;;;;;14.30;11.68;;;17.90;56.60;;;;;;4992971;28;20048;-62
2021/11/16 01:07:52;;;;;;;13.02;10.40;;;17.90;56.70;;;;;;4990182;28;20060;-62
2021/11/16 01:10:19;;;;;;;13.57;10.85;;;17.90;56.60;;;;;;4991610;28;20524;-59
2021/11/16 01:12:45;;;;;;;11.95;10.20;;;17.90;56.60;;;;;;5008756;28;20052;-61
2021/11/16 01:15:11;;;;;;;14.05;11.07;;;17.90;56.60;;;;;;5005026;28;20671;-62
2021/11/16 01:17:37;;;;;;;12.10;10.32;;;17.90;56.60;;;;;;4995053;28;20038;-62
2021/11/16 01:20:04;;;;;;;13.32;10.73;;;17.90;56.60;;;;;;5006342;28;20080;-62
2021/11/16 01:22:30;;;;;;;15.10;11.32;;;17.90;56.60;;;;;;5002490;28;20080;-62
2021/11/16 01:24:55;;;;;;;12.48;11.05;;;17.90;56.50;;;;;;5009547;28;20084;-62
2021/11/16 01:27:21;;;;;;;13.88;11.15;;;17.90;56.50;;;;;;5008478;28;20045;-60
2021/11/16 01:29:48;;;;;;;14.57;11.50;;;17.90;56.50;;;;;;5009864;28;20022;-61
2021/11/16 01:32:29;;;;;;;13.48;10.77;;;17.90;56.40;;;;;;4995263;28;20116;-62
2021/11/16 01:34:55;;;;;;;12.98;11.05;;;17.80;57.10;;;;;;4997606;28;20036;-61
2021/11/16 01:37:22;;;;;;;15.80;11.75;;;17.90;56.50;;;;;;5003201;28;20401;-62
2021/11/16 01:39:48;;;;;;;14.75;11.60;;;17.80;56.50;;;;;;4996227;28;20029;-62
2021/11/16 01:42:13;;;;;;;15.02;11.50;;;17.80;56.40;;;;;;5000440;28;20046;-61
2021/11/16 01:44:38;;;;;;;12.95;11.20;;;17.80;56.50;;;;;;4998608;28;20121;-61
2021/11/16 01:47:04;;;;;;;13.63;11.07;;;17.80;56.50;;;;;;4991954;28;20026;-62
2021/11/16 01:49:29;;;;;;;13.13;10.73;;;17.80;56.50;;;;;;4993308;28;20468;-61
2021/11/16 01:51:55;;;;;;;13.90;10.43;;;17.80;56.50;;;;;;4993639;28;20048;-61
2021/11/16 01:54:20;;;;;;;12.20;10.32;;;17.80;56.40;;;;;;4994045;28;20034;-62
2021/11/16 01:56:46;;;;;;;13.95;10.68;;;17.80;56.40;;;;;;4994656;28;20026;-62
2021/11/16 01:59:12;;;;;;;12.82;10.68;;;17.80;56.40;;;;;;5004097;28;20033;-62
2021/11/16 02:01:38;;;;;;;13.43;10.90;;;17.90;56.30;;;;;;4998371;28;20031;-62
2021/11/16 02:04:04;;;;;;;14.45;12.02;;;17.90;56.20;;;;;;5006678;28;20755;-62
2021/11/16 02:06:31;;;;;;;14.63;11.77;;;17.90;55.90;;;;;;5006906;28;20038;-61
2021/11/16 02:08:57;;;;;;;14.65;11.40;;;18.00;55.70;;;;;;4998666;28;20041;-62
2021/11/16 02:11:23;;;;;;;12.80;11.00;;;18.10;55.60;;;;;;4998050;28;20053;-61
2021/11/16 02:13:48;;;;;;;13.93;12.10;;;18.20;55.50;;;;;;4987967;28;20536;-62
2021/11/16 02:16:14;;;;;;;12.43;10.88;;;18.20;55.40;;;;;;4988920;28;20032;-62
2021/11/16 02:18:39;;;;;;;13.48;11.75;;;18.20;55.30;;;;;;4989236;28;20042;-62
2021/11/16 02:21:05;;;;;;;14.13;12.02;;;18.20;55.40;;;;;;5007038;28;20096;-62
2021/11/16 02:23:32;;;;;;;12.25;10.70;;;18.30;55.20;;;;;;4998784;28;20050;-62
2021/11/16 02:25:58;;;;;;;13.73;11.25;;;18.30;55.10;;;;;;4989794;28;20034;-61
2021/11/16 02:28:23;;;;;;;13.18;11.00;;;18.30;55.20;;;;;;4993439;28;20022;-61
2021/11/16 02:30:49;;;;;;;13.60;11.75;;;18.30;55.10;;;;;;4995216;28;20397;-61
2021/11/16 02:33:15;;;;;;;12.10;10.90;;;18.40;55.10;;;;;;4993799;28;20481;-61
2021/11/16 02:35:40;;;;;;;14.68;10.70;;;18.30;55.00;;;;;;4996522;28;20030;-62
2021/11/16 02:38:06;;;;;;;14.23;11.48;;;18.30;55.70;;;;;;4989521;28;20030;-61
2021/11/16 02:40:32;;;;;;;14.63;11.10;;;18.30;55.00;;;;;;4998947;28;20037;-60
2021/11/16 02:42:58;;;;;;;13.45;10.88;;;18.30;55.00;;;;;;4997408;28;20034;-60
2021/11/16 02:45:23;;;;;;;13.27;11.50;;;18.30;54.90;;;;;;5004930;28;20037;-61
2021/11/16 02:47:49;;;;;;;15.05;12.07;;;18.30;54.90;;;;;;4990246;28;20121;-54
2021/11/16 02:50:15;;;;;;;14.35;11.32;;;18.30;54.90;;;;;;4996812;28;20057;-58
2021/11/16 02:52:40;;;;;;;14.25;11.43;;;18.40;54.90;;;;;;4984105;28;20670;-62
2021/11/16 02:55:07;;;;;;;15.15;11.80;;;18.40;54.90;;;;;;4998895;28;20053;-55
2021/11/16 02:57:32;;;;;;;17.25;12.77;;;18.30;54.70;;;;;;4985862;28;20037;-60
2021/11/16 02:59:58;;;;;;;18.33;13.45;;;18.40;54.90;;;;;;4992120;28;20038;-60
2021/11/16 03:02:23;;;;;;;14.60;12.55;;;18.40;54.80;;;;;;4994662;28;20030;-56
2021/11/16 03:04:49;;;;;;;15.00;11.77;;;18.40;54.80;;;;;;5006570;28;20030;-60
2021/11/16 03:07:32;;;;;;;18.73;12.70;;;18.30;54.70;;;;;;5004228;28;20048;-61
2021/11/16 03:09:58;;;;;;;17.02;12.90;;;18.40;54.70;;;;;;5001880;28;20033;-61
2021/11/16 03:12:28;;;;;;;15.88;12.43;;;18.40;54.80;;;;;;5000834;28;20109;-61
2021/11/16 03:14:54;;;;;;;16.42;12.65;;;18.30;54.80;;;;;;5003580;28;20113;-58
2021/11/16 03:17:19;;;;;;;15.45;13.02;;;18.30;54.70;;;;;;5006527;28;20591;-60
2021/11/16 03:19:45;;;;;;;16.83;12.80;;;18.30;54.60;;;;;;4999050;28;20030;-61
2021/11/16 03:22:11;;;;;;;16.30;13.05;;;18.30;54.70;;;;;;5028921;23;20034;-63
2021/11/16 03:24:37;;;;;;;15.40;12.60;;;18.30;54.70;;;;;;5005094;28;20076;-63
2021/11/16 03:27:07;;;;;;;16.33;13.05;;;18.20;54.80;;;;;;5004971;28;20603;-62
2021/11/16 03:29:34;;;;;;;16.15;13.15;;;18.20;55.40;;;;;;5004966;28;20050;-63
2021/11/16 03:32:09;;;;;;;17.33;13.63;;;18.20;54.70;;;;;;5005519;28;20125;-64
2021/11/16 03:34:35;;;;;;;16.27;13.32;;;18.20;54.90;;;;;;5000269;28;20029;-63
2021/11/16 03:40:25;;;;;;;15.13;13.05;;;18.20;54.80;;;;;;5861685;22;20269;-60
2021/11/16 03:42:51;;;;;;;14.80;12.48;;;18.20;54.80;;;;;;5022546;28;20114;-60
2021/11/16 03:45:20;;;;;;;16.00;13.23;;;18.10;54.80;;;;;;5043792;28;20029;-61
2021/11/16 03:47:45;;;;;;;16.42;12.65;;;18.10;54.90;;;;;;5045730;28;20028;-52
2021/11/16 03:50:16;;;;;;;15.63;13.02;;;18.10;55.00;;;;;;5046019;28;20029;-56
2021/11/16 03:52:43;;;;;;;16.02;13.20;;;18.10;55.00;;;;;;5034511;28;20021;-61
2021/11/16 03:55:12;;;;;;;15.60;12.38;;;18.10;55.00;;;;;;5029861;28;20224;-60
2021/11/16 03:57:38;;;;;;;15.65;12.50;;;18.00;55.00;;;;;;5054487;23;20045;-69
2021/11/16 04:00:08;;;;;;;16.02;13.38;;;18.00;55.00;;;;;;5018191;28;20483;-69
2021/11/16 04:02:34;;;;;;;15.93;13.25;;;18.00;55.00;;;;;;5019185;28;20022;-67
2021/11/16 04:05:00;;;;;;;15.40;11.82;;;18.00;55.00;;;;;;5021889;28;20731;-68
2021/11/16 04:07:25;;;;;;;17.80;12.65;;;17.90;55.10;;;;;;5026605;28;20029;-68
2021/11/16 04:09:51;;;;;;;15.65;12.43;;;17.90;55.80;;;;;;5021881;28;20025;-68
2021/11/16 04:12:17;;;;;;;14.38;11.50;;;18.00;55.10;;;;;;5001947;28;20026;-69
2021/11/16 04:14:42;;;;;;;15.13;11.18;;;18.00;55.20;;;;;;5016504;28;20049;-69
2021/11/16 04:17:07;;;;;;;15.32;12.10;;;17.90;55.10;;;;;;4999793;28;20686;-68
2021/11/16 04:19:33;;;;;;;13.85;11.30;;;17.90;55.10;;;;;;5012127;28;20029;-68
2021/11/16 04:21:59;;;;;;;13.93;10.98;;;18.00;55.10;;;;;;5019379;28;20034;-67
2021/11/16 04:24:24;;;;;;;14.13;11.48;;;17.90;55.10;;;;;;4982717;28;20025;-67
2021/11/16 04:26:49;;;;;;;14.23;11.80;;;18.00;55.30;;;;;;5004339;28;20038;-68
2021/11/16 04:29:15;;;;;;;13.05;11.05;;;18.00;55.20;;;;;;5010705;28;20072;-68
2021/11/16 04:31:40;;;;;;;13.88;11.10;;;17.90;55.20;;;;;;4997461;28;20440;-69
2021/11/16 04:34:07;;;;;;;14.70;11.63;;;18.00;55.20;;;;;;5017608;28;20108;-68
2021/11/16 04:36:33;;;;;;;13.75;11.00;;;18.00;55.30;;;;;;5011072;28;20518;-70
2021/11/16 04:38:59;;;;;;;12.63;11.10;;;18.00;55.30;;;;;;5006993;28;20085;-69
2021/11/16 04:41:24;;;;;;;13.93;11.60;;;18.00;55.20;;;;;;4992636;28;20037;-69
2021/11/16 04:43:50;;;;;;;13.93;12.10;;;18.00;55.20;;;;;;5014606;28;20045;-70
2021/11/16 04:46:19;;;;;;;15.57;11.05;;;18.00;55.20;;;;;;5017355;28;20363;-69
2021/11/16 04:49:05;;;;;;;13.07;11.68;;;18.00;55.10;;;;;;5024875;28;20426;-69
2021/11/16 05:05:01;;;;;;;13.85;12.00;;;18.10;54.90;;;;;;4906900;29;20040;-69
2021/11/16 05:07:28;;;;;;;12.27;10.98;;;18.20;54.80;;;;;;4976338;28;20029;-69
2021/11/16 05:09:57;;;;;;;11.68;10.45;;;18.20;54.80;;;;;;5025253;28;20033;-70
2021/11/16 05:12:24;;;;;;;12.30;10.95;;;18.20;54.80;;;;;;5007872;28;20476;-69
2021/11/16 05:14:51;;;;;;;12.85;10.75;;;18.20;54.70;;;;;;5020068;28;20068;-69
2021/11/16 05:17:16;;;;;;;12.50;10.25;;;18.20;54.60;;;;;;5017637;28;20029;-70
2021/11/16 05:19:42;;;;;;;14.00;11.23;;;18.20;54.60;;;;;;5023739;28;20036;-69
2021/11/16 05:22:07;;;;;;;12.80;10.73;;;18.20;54.50;;;;;;5024871;28;20036;-69
2021/11/16 05:24:33;;;;;;;12.80;10.38;;;18.30;54.60;;;;;;5024336;28;20037;-69
2021/11/16 05:26:58;;;;;;;12.10;10.88;;;18.30;54.50;;;;;;5025433;28;20491;-69
2021/11/16 05:29:24;;;;;;;12.07;10.82;;;18.30;54.50;;;;;;5011854;28;20099;-69
2021/11/16 05:31:49;;;;;;;12.02;10.40;;;18.30;54.40;;;;;;5025153;28;20457;-69
2021/11/16 05:34:15;;;;;;;12.85;10.60;;;18.30;54.40;;;;;;5024725;28;20060;-69
2021/11/16 05:36:41;;;;;;;11.00;9.80;;;18.30;54.40;;;;;;5025003;28;20030;-69
2021/11/16 05:39:06;;;;;;;12.23;10.75;;;18.30;54.40;;;;;;5003684;28;20425;-69
2021/11/16 05:41:32;;;;;;;11.48;10.05;;;18.30;54.40;;;;;;5024906;28;20037;-69
2021/11/16 05:43:59;;;;;;;11.80;10.60;;;18.30;54.40;;;;;;5023629;28;20371;-67
2021/11/16 05:46:24;;;;;;;11.32;10.10;;;18.30;54.40;;;;;;5016999;28;20631;-69
2021/11/16 05:48:51;;;;;;;12.02;10.30;;;18.30;54.30;;;;;;5024852;28;20037;-69
2021/11/16 05:51:17;;;;;;;12.05;10.00;;;18.30;54.40;;;;;;5023415;28;20464;-69
2021/11/16 05:53:45;;;;;;;11.80;10.55;;;18.30;54.30;;;;;;5025168;28;20803;-69
2021/11/16 05:56:11;;;;;;;11.27;10.07;;;18.30;54.40;;;;;;5026271;28;20084;-69
2021/11/16 05:58:39;;;;;;;10.80;9.57;;;18.30;54.30;;;;;;5009318;28;20106;-69
2021/11/16 06:01:05;;;;;;;10.65;9.52;;;18.30;54.30;;;;;;5026424;28;20304;-69
2021/11/16 06:03:31;;;;;;;11.88;9.85;;;18.30;54.20;;;;;;5016703;28;20032;-69
2021/11/16 06:05:56;;;;;;;12.13;10.18;;;18.20;54.30;;;;;;5028567;28;20033;-68
2021/11/16 06:08:26;;;;;;;11.23;9.23;;;18.20;54.20;;;;;;5027792;28;20021;-69
2021/11/16 06:10:52;;;;;;;13.60;10.90;;;18.20;54.20;;;;;;5012062;28;20072;-68
2021/11/16 06:13:18;;;;;;;18.75;14.95;;;18.20;54.30;;;;;;5028621;28;20501;-68
2021/11/16 06:15:43;;;;;;;21.27;16.35;;;18.30;54.20;;;;;;5011055;28;20021;-67
2021/11/16 06:18:09;;;;;;;21.08;16.23;;;18.20;54.30;;;;;;5028613;28;20028;-68
2021/11/16 06:20:35;;;;;;;21.58;16.27;;;18.20;54.30;;;;;;5028062;28;20502;-68
2021/11/16 06:23:01;;;;;;;20.77;15.10;;;18.20;54.50;;;;;;5019944;28;20029;-73
2021/11/16 06:25:26;;;;;;;18.88;13.38;;;18.20;55.00;;;;;;5010451;28;20737;-68
2021/11/16 06:27:52;;;;;;;22.08;15.18;;;18.20;55.10;;;;;;5028748;28;20029;-68
2021/11/16 06:30:17;;;;;;;18.02;13.55;;;18.10;55.30;;;;;;5019220;28;20017;-68
2021/11/16 06:32:43;;;;;;;15.77;13.02;;;18.10;55.40;;;;;;5028098;28;20049;-68
2021/11/16 06:35:18;;;;;;;22.58;14.25;;;18.10;55.40;;;;;;5011089;28;20028;-68
2021/11/16 06:37:44;;;;;;;16.60;12.37;;;18.10;55.50;;;;;;5011062;28;20407;-70
2021/11/16 06:40:09;;;;;;;16.30;13.18;;;18.10;55.50;;;;;;5026332;28;20017;-69
2021/11/16 06:42:36;;;;;;;18.45;13.52;;;18.10;55.50;;;;;;5027734;28;20028;-67
2021/11/16 06:45:01;;;;;;;14.82;12.63;;;18.10;55.30;;;;;;5025235;28;20112;-69
2021/11/16 06:47:27;;;;;;;13.35;11.85;;;18.10;55.30;;;;;;5027758;28;20025;-68
2021/11/16 06:49:52;;;;;;;17.60;13.35;;;18.10;55.20;;;;;;5027015;28;20029;-68
2021/11/16 06:52:19;;;;;;;16.77;12.65;;;18.10;55.00;;;;;;5027212;28;20025;-68
2021/11/16 06:54:44;;;;;;;15.45;11.90;;;18.20;54.90;;;;;;5027759;28;20052;-67
2021/11/16 06:57:10;;;;;;;18.92;11.93;;;18.20;54.80;;;;;;5012441;28;20057;-67
2021/11/16 06:59:35;;;;;;;19.23;12.15;;;18.10;54.60;;;;;;5025531;28;20078;-68
2021/11/16 07:02:01;;;;;;;14.40;11.77;;;18.20;54.60;;;;;;5017771;28;20120;-68
2021/11/16 07:04:37;;;;;;;14.45;12.18;;;18.10;54.40;;;;;;5025205;28;20044;-70
2021/11/16 07:07:02;;;;;;;17.40;11.90;;;18.10;54.40;;;;;;5008460;28;20026;-69
2021/11/16 07:09:32;;;;;;;13.55;11.18;;;18.10;54.30;;;;;;5022347;28;20045;-68
2021/11/16 07:11:57;;;;;;;14.65;11.90;;;18.10;54.20;;;;;;5028939;28;20080;-68
2021/11/16 07:14:24;;;;;;;13.68;11.63;;;18.10;54.20;;;;;;5029728;28;20104;-68
2021/11/16 07:16:55;;;;;;;14.25;12.13;;;18.10;54.20;;;;;;5030962;28;20076;-71
2021/11/16 07:19:42;;;;;;;17.27;12.18;;;18.10;54.20;;;;;;5031099;28;20403;-67
2021/11/16 07:22:21;;;;;;;18.55;13.15;;;18.10;54.20;;;;;;5027200;28;20144;-68
2021/11/16 07:24:56;;;;;;;22.60;13.30;;;18.10;54.80;;;;;;5025977;28;20026;-68
2021/11/16 07:27:26;;;;;;;18.60;12.55;;;18.10;54.70;;;;;;5023442;28;20053;-68
2021/11/16 07:29:53;;;;;;;20.17;11.90;;;18.10;54.60;;;;;;5012391;28;20827;-68
2021/11/16 07:32:23;;;;;;;17.60;12.38;;;18.00;54.50;;;;;;5027490;28;20041;-68
2021/11/16 07:34:50;;;;;;;19.60;12.57;;;18.00;54.90;;;;;;5026864;28;20513;-68
2021/11/16 07:37:24;;;;;;;19.52;11.93;;;18.00;55.10;;;;;;5026677;28;20034;-74
2021/11/16 07:39:52;;;;;;;15.30;10.88;;;18.00;55.30;;;;;;5019751;28;20506;-68
2021/11/16 07:42:19;;;;;;;16.70;10.85;;;17.90;55.50;;;;;;5025277;28;20034;-68
2021/11/16 07:45:10;;;;;;;15.68;10.93;;;17.90;55.50;;;;;;5026690;28;20029;-70
2021/11/16 07:47:49;;;;;;;15.52;11.05;;;17.80;55.40;;;;;;5020041;28;20454;-71
2021/11/16 07:50:35;;;;;;;17.15;13.02;;;17.90;55.50;;;;;;5025672;28;20116;-71
2021/11/16 07:53:23;;;;;;;18.23;13.27;;;17.90;56.00;;;;;;5013107;28;20710;-72
2021/11/16 07:55:56;;;;;;;27.23;13.73;;;17.90;56.40;;;;;;5024274;28;20038;-71
2021/11/16 07:58:23;;;;;;;19.58;13.77;;;17.90;56.70;;;;;;5025127;28;20119;-71
2021/11/16 08:00:50;;;;;;;27.58;15.18;;;17.90;57.00;;;;;;5024993;28;20057;-70
2021/11/16 08:03:22;;;;;;;23.58;14.93;;;17.90;57.10;;;;;;5007535;28;20022;-70
2021/11/16 08:11:20;;;;;;;26.08;13.50;;;17.90;57.80;;;;;;5021724;28;20045;-70
2021/11/16 08:14:06;;;;;;;18.50;13.38;;;17.80;57.70;;;;;;5023955;28;20057;-70
2021/11/16 08:16:32;;;;;;;;;;;17.90;57.70;;;;;;5017207;28;20037;-71
2021/11/16 08:19:01;;;;;;;;;;;17.90;57.70;;;;;;5026073;28;19909;-71
2021/11/16 08:21:27;;;;;;;26.35;14.20;;;17.90;57.70;;;;;;5025628;28;20377;-68
2021/11/16 08:24:00;;;;;;;24.25;13.18;;;17.90;57.80;;;;;;5008014;28;20041;-68
2021/11/16 08:26:28;;;;;;;20.27;12.77;;;17.90;57.80;;;;;;5025778;28;20056;-68
2021/11/16 08:28:53;;;;;;;18.30;13.07;;;17.90;57.60;;;;;;5008020;28;20036;-69
2021/11/16 08:31:19;;;;;;;19.05;12.57;;;17.90;57.70;;;;;;5025935;28;20483;-68
2021/11/16 08:33:44;;;;;;;17.23;12.23;;;17.90;57.90;;;;;;5024584;28;20074;-68
2021/11/16 08:36:10;;;;;;;18.15;12.23;;;17.90;57.90;;;;;;5024741;28;20060;-68
2021/11/16 08:38:36;;;;;;;20.80;11.65;;;17.90;57.80;;;;;;5008374;28;20025;-68
2021/11/16 08:41:02;;;;;;;21.45;12.65;;;17.90;57.80;;;;;;5011498;28;20475;-68
2021/11/16 08:43:36;;;;;;;17.13;12.32;;;18.00;57.70;;;;;;5007289;28;20041;-68
2021/11/16 08:46:04;;;;;;;25.92;13.38;;;18.00;57.50;;;;;;5025449;28;20059;-68
2021/11/16 08:48:29;;;;;;;16.20;13.52;;;18.10;57.20;;;;;;5024641;28;20033;-69
2021/11/16 08:51:00;;;;;;;17.50;12.15;;;18.10;57.10;;;;;;5024327;28;20036;-68
2021/11/16 08:53:28;;;;;;;19.92;11.93;;;18.20;57.00;;;;;;5025561;28;20053;-68
2021/11/16 08:55:54;;;;;;;17.88;12.30;;;18.20;56.90;;;;;;5024662;28;20025;-68
2021/11/16 08:58:19;;;;;;;17.70;11.75;;;18.20;56.70;;;;;;5024701;28;20044;-68
2021/11/16 09:00:47;;;;;;;17.27;11.95;;;18.30;56.70;;;;;;5019250;28;20038;-68
2021/11/16 09:03:25;;;;;;;16.75;12.85;;;18.30;56.60;;;;;;5024699;28;20040;-68
2021/11/16 09:05:50;;;;;;;15.18;11.90;;;18.30;56.60;;;;;;5025029;28;20489;-68
2021/11/16 09:08:27;;;;;;;19.10;12.50;;;18.30;56.60;;;;;;5017855;28;20133;-68
2021/11/16 09:10:58;;;;;;;18.95;13.27;;;18.30;56.60;;;;;;5024379;28;20117;-69
2021/11/16 09:13:25;;;;;;;13.93;11.57;;;18.30;56.50;;;;;;5024707;28;20032;-68
2021/11/16 09:16:11;;;;;;;17.25;12.43;;;18.30;56.50;;;;;;5007333;28;20041;-68
2021/11/16 09:18:47;;;;;;;14.75;12.15;;;18.30;56.40;;;;;;5024406;28;20035;-68
2021/11/16 09:21:17;;;;;;;16.58;11.55;;;18.30;56.40;;;;;;5020624;28;20034;-68
2021/11/16 09:24:16;;;;;;;14.73;12.93;;;18.30;56.50;;;;;;5024844;28;20034;-68
2021/11/16 09:29:47;;;;;;;14.05;11.75;;;18.30;56.40;;;;;;4979723;28;20034;-68
2021/11/16 09:32:14;;;;;;;15.88;11.93;;;18.30;56.40;;;;;;5027790;28;20030;-68
2021/11/16 09:34:45;;;;;;;15.73;11.88;;;18.20;56.30;;;;;;5011046;28;20505;-69
2021/11/16 09:37:13;;;;;;;16.38;12.05;;;18.20;56.30;;;;;;5011895;28;20026;-68
2021/11/16 09:39:59;;;;;;;17.10;12.35;;;18.20;56.40;;;;;;5028560;28;20049;-68
2021/11/16 09:42:28;;;;;;;14.85;12.48;;;18.20;56.30;;;;;;5026602;28;20026;-69
2021/11/16 09:44:59;;;;;;;16.25;11.57;;;18.20;56.30;;;;;;5009271;28;20041;-68
2021/11/16 09:47:26;;;;;;;14.00;11.77;;;18.20;56.40;;;;;;5026656;28;20026;-69
2021/11/16 09:49:56;;;;;;;13.73;11.77;;;18.20;56.40;;;;;;5010661;28;20037;-69
2021/11/16 09:52:42;;;;;;;13.63;12.23;;;18.10;56.30;;;;;;5028548;28;20554;-68
2021/11/16 09:55:24;;;;;;;14.43;11.65;;;18.10;56.40;;;;;;5010301;28;20034;-69
2021/11/16 09:58:24;;;;;;;13.30;11.60;;;18.10;56.40;;;;;;5025168;28;20068;-68
2021/11/16 10:00:50;;;;;;;15.77;12.45;;;18.10;56.50;;;;;;5027963;28;20462;-69
2021/11/16 10:03:22;;;;;;;14.93;12.70;;;18.10;57.10;;;;;;5028321;28;20045;-68
2021/11/16 10:05:52;;;;;;;14.00;11.32;;;18.10;56.50;;;;;;5027011;28;20033;-69
2021/11/16 10:08:19;;;;;;;11.85;10.65;;;18.10;56.50;;;;;;5027886;28;20112;-69
2021/11/16 10:10:50;;;;;;;13.85;11.98;;;18.10;56.40;;;;;;5010048;28;20040;-69
2021/11/16 10:13:19;;;;;;;13.20;10.50;;;18.10;56.40;;;;;;5027822;28;20033;-69
2021/11/16 10:15:49;;;;;;;13.57;11.20;;;18.10;56.40;;;;;;5010296;28;20109;-69
2021/11/16 10:18:15;;;;;;;13.77;11.63;;;18.10;56.40;;;;;;5027671;28;20308;-68
2021/11/16 10:20:46;;;;;;;12.73;11.30;;;18.00;56.50;;;;;;5028075;28;20091;-69
2021/11/16 10:23:13;;;;;;;13.05;10.90;;;18.10;56.50;;;;;;5027655;28;20442;-69
2021/11/16 10:25:43;;;;;;;13.73;11.38;;;18.00;56.50;;;;;;5027605;28;20112;-68
2021/11/16 10:28:12;;;;;;;13.85;10.85;;;18.00;56.60;;;;;;5011220;28;20428;-69
2021/11/16 10:30:38;;;;;;;12.70;10.73;;;18.00;56.60;;;;;;5027615;28;20057;-69
2021/11/16 10:33:16;;;;;;;12.77;10.77;;;18.00;56.70;;;;;;5012457;28;20462;-68
2021/11/16 10:35:48;;;;;;;14.35;10.45;;;18.00;56.70;;;;;;5027181;28;20577;-69
2021/11/16 10:38:19;;;;;;;13.20;10.98;;;17.90;56.70;;;;;;5026993;28;20055;-69
2021/11/16 10:40:44;;;;;;;13.05;11.75;;;18.00;56.80;;;;;;5027270;28;20033;-68
2021/11/16 10:43:10;;;;;;;12.07;10.40;;;18.00;56.80;;;;;;5026560;28;20111;-69
2021/11/16 10:45:43;;;;;;;13.27;11.27;;;17.90;56.80;;;;;;5009559;28;20085;-68
2021/11/16 10:48:10;;;;;;;12.23;10.55;;;17.90;56.90;;;;;;5019572;28;20025;-69
2021/11/16 10:50:37;;;;;;;11.93;10.18;;;17.90;56.90;;;;;;5022407;28;20036;-69
2021/11/16 10:53:10;;;;;;;11.68;10.57;;;17.90;56.90;;;;;;5026070;28;20614;-70
2021/11/16 10:55:43;;;;;;;14.32;11.45;;;17.90;57.00;;;;;;5027520;28;20087;-69
2021/11/16 10:58:10;;;;;;;12.82;10.27;;;17.90;57.00;;;;;;5027156;28;21799;-69
2021/11/16 11:00:47;;;;;;;12.45;10.90;;;17.90;56.90;;;;;;5027008;28;20502;-69
2021/11/16 11:03:22;;;;;;;13.07;10.13;;;17.90;57.00;;;;;;5019556;28;20071;-69
2021/11/16 11:06:07;;;;;;;14.13;9.80;;;17.90;57.10;;;;;;5025243;28;20113;-69
2021/11/16 11:08:40;;;;;;;14.55;11.02;;;17.90;57.10;;;;;;5026743;28;20033;-69
2021/11/16 11:11:13;;;;;;;14.68;10.13;;;17.90;57.10;;;;;;5026562;28;20029;-69
2021/11/16 11:13:39;;;;;;;11.73;9.52;;;17.90;57.10;;;;;;5026762;28;20101;-69
2021/11/16 11:16:15;;;;;;;11.07;9.77;;;17.80;57.20;;;;;;5026649;28;20153;-71
2021/11/16 11:18:41;;;;;;;15.38;9.75;;;17.80;57.20;;;;;;5022352;28;20032;-69
2021/11/16 11:21:10;;;;;;;14.63;9.15;;;17.80;57.30;;;;;;5009020;28;20141;-69
2021/11/16 11:23:35;;;;;;;10.73;9.57;;;17.80;57.30;;;;;;5025848;28;20038;-69
2021/11/16 11:26:29;;;;;;;11.70;9.23;;;17.80;57.30;;;;;;5026175;28;20072;-70
2021/11/16 11:31:55;;;;;;;12.55;9.52;;;17.80;57.30;;;;;;5010841;28;20615;-69
2021/11/16 11:34:28;;;;;;;14.05;10.38;;;17.80;57.30;;;;;;5026084;28;20071;-69
2021/11/16 11:37:00;;;;;;;11.75;9.95;;;17.80;57.30;;;;;;5009499;28;20034;-69
2021/11/16 11:39:31;;;;;;;12.82;9.85;;;17.80;57.20;;;;;;5008663;28;20037;-69
2021/11/16 11:41:56;;;;;;;13.02;10.13;;;17.80;57.20;;;;;;5014343;28;20072;-69
2021/11/16 11:44:22;;;;;;;12.10;9.32;;;17.80;57.20;;;;;;5026797;28;20722;-69
2021/11/16 11:46:55;;;;;;;12.15;9.05;;;17.90;57.20;;;;;;5026622;28;20052;-69
2021/11/16 11:49:21;;;;;;;11.60;9.02;;;17.80;57.20;;;;;;5008832;28;20030;-69
2021/11/16 11:51:47;;;;;;;10.07;8.90;;;17.80;57.20;;;;;;5013010;28;20059;-69
2021/11/16 11:54:13;;;;;;;11.63;9.82;;;17.80;57.30;;;;;;5026052;28;20284;-69
2021/11/16 11:56:39;;;;;;;11.27;8.40;;;17.80;57.30;;;;;;5025795;28;20030;-69
2021/11/16 11:59:04;;;;;;;12.68;9.27;;;17.80;57.40;;;;;;5026145;28;20044;-69
2021/11/16 12:01:30;;;;;;;12.57;9.55;;;17.80;57.40;;;;;;5026114;28;20037;-69
2021/11/16 12:03:56;;;;;;;11.70;8.52;;;17.80;57.50;;;;;;5012558;28;20098;-69
2021/11/16 12:06:26;;;;;;;12.20;8.90;;;17.80;57.50;;;;;;5026254;28;20546;-68
2021/11/16 12:08:52;;;;;;;11.07;9.05;;;17.70;57.60;;;;;;5025737;28;20675;-70
2021/11/16 12:11:19;;;;;;;10.65;8.65;;;17.70;57.70;;;;;;5007816;28;20029;-68
2021/11/16 12:13:45;;;;;;;10.60;8.75;;;17.70;57.70;;;;;;5025519;28;20037;-68
2021/11/16 12:16:14;;;;;;;13.63;9.20;;;17.70;57.80;;;;;;5026435;28;20124;-70
2021/11/16 12:18:44;;;;;;;11.77;8.73;;;17.70;57.90;;;;;;5008739;28;20124;-71
2021/11/16 12:21:34;;;;;;;11.90;9.82;;;17.70;58.00;;;;;;5025741;28;20646;-69
2021/11/16 12:24:20;;;;;;;11.23;8.70;;;17.70;58.00;;;;;;5025464;28;20029;-70
2021/11/16 12:26:52;;;;;;;11.98;8.77;;;17.70;58.10;;;;;;5018363;28;20029;-70
2021/11/16 12:29:19;;;;;;;10.45;8.93;;;17.70;58.10;;;;;;5025361;28;20021;-70
2021/11/16 12:31:46;;;;;;;11.40;9.02;;;17.70;58.20;;;;;;5025837;28;20041;-69
2021/11/16 12:34:12;;;;;;;9.98;7.97;;;17.70;58.30;;;;;;5026017;28;20109;-69
2021/11/16 12:36:46;;;;;;;10.55;9.35;;;17.70;58.30;;;;;;5027068;28;20105;-69
2021/11/16 12:39:22;;;;;;;12.63;8.45;;;17.70;58.30;;;;;;5021185;28;20062;-69
2021/11/16 12:41:51;;;;;;;12.10;9.98;;;17.70;58.40;;;;;;5025175;28;20041;-68
2021/11/16 12:44:18;;;;;;;11.32;8.60;;;17.80;58.50;;;;;;5008449;28;20030;-69
2021/11/16 12:46:45;;;;;;;13.15;9.27;;;17.80;58.50;;;;;;5025856;28;20034;-68
2021/11/16 12:49:33;;;;;;;12.82;9.15;;;17.70;58.50;;;;;;5023254;28;20041;-68
2021/11/16 12:52:00;;;;;;;12.30;8.68;;;17.70;58.60;;;;;;5025651;28;20068;-68
2021/11/16 12:54:30;;;;;;;11.65;8.48;;;17.80;58.60;;;;;;5025415;28;20104;-68
2021/11/16 12:56:56;;;;;;;10.32;8.57;;;17.80;58.70;;;;;;5026001;28;20036;-69
2021/11/16 12:59:22;;;;;;;11.57;9.27;;;17.70;58.60;;;;;;5025745;28;20128;-69
2021/11/16 13:01:50;;;;;;;10.20;8.88;;;17.80;58.70;;;;;;5026850;28;20057;-69
2021/11/16 13:04:17;;;;;;;13.45;9.77;;;17.80;58.70;;;;;;5011614;28;20034;-69